Ah Gwah Ching, Minnesota
Current Conditions -  °F | °C
As of 12:35 AM on Saturday 25 Oct 2014 (Local Time) from KY49 Reporting Station
Clear Clear  
Wind Chill: 12°   Ceiling: Unl
Heat Index: 12°   Visibility: 10mi
Dew Point:   Wind: 9mph
Humidity: 45%   Direction: 290°WNW
Pressure: 29.87"   Gusts: NA
Location:  47.08°N, 94.57°W
Report Text: KY49 250535Z AUTO 29008KT 10SM CLR 12/00 A2987 RMK AO2 T01200003
Loading
Personal Weather Stations






























Interactive Weather Map
Tropical Storm Tracking
New forecast layout! Learn more

10-Day Weather Forecast

Advertisements
Track Severe Weather on mobile